Bella Una — WDF6443 — position and weather

sailwx.info

Track history (hours):
 
Tides and Currents Weather Stations Pressure Air Temp Water Temp Dewpoint Dewpoint Depression Visibility Wind Speed Wind Dir Waves Ship Positions

Bella Una

Owner: Bella Una, LLC, Fort Lauderdale, FL. More information available from US FCC via Universal Licensing System and Coast Guard Vessel Documentation Center.

Last reported at 2016-Jun-26 13:04 UTC. Time now 2016-Jun-26 19:15 UTC.
Position N 41°26' W 070°15'.

Length 39 m; draft 2.2 m.

Type: Pleasure craft. MMSI: 366609000.

Date/timePositionNaut miles runAvg speedWind from/ knotsBaromVisibWave heightAir tempDewpointWater temp
2016-Jun-26 13:04N 41°26' W 070°15'911.8
2016-Jun-26 12:20N 41°20' W 070°07'3 3.9
2016-Jun-26 11:34N 41°17' W 070°06'0 0.0
2016-Jun-25 10:11N 41°17' W 070°06'0 0.0
2016-Jun-25 06:06N 41°17' W 070°06'0 0.0
2016-Jun-25 05:32N 41°17' W 070°06'  
2016-Jun-22 13:07N 42°11' W 070°38'711.6
2016-Jun-22 12:33N 42°16' W 070°44'1110.8
2016-Jun-22 11:34N 42°20' W 070°58'4 4.3
2016-Jun-22 10:34N 42°22' W 071°03'0 0.0
2016-Jun-22 09:34N 42°22' W 071°03'0 0.0
2016-Jun-22 08:34N 42°22' W 071°03'0 0.0
2016-Jun-22 07:34N 42°22' W 071°03'0 0.0
2016-Jun-22 06:34N 42°22' W 071°03'0 0.0
2016-Jun-22 05:33N 42°22' W 071°03'0 0.0
2016-Jun-22 04:34N 42°22' W 071°03'0 0.0
2016-Jun-22 03:34N 42°22' W 071°03'0 0.0
2016-Jun-22 02:34N 42°22' W 071°03'0 0.0
2016-Jun-22 01:34N 42°22' W 071°03'0 0.0
2016-Jun-22 00:34N 42°22' W 071°03'0 0.0
2016-Jun-21 23:34N 42°22' W 071°03'0 0.0
2016-Jun-21 22:34N 42°22' W 071°03'0 0.0
2016-Jun-21 21:33N 42°22' W 071°03'0 0.0
2016-Jun-21 20:34N 42°22' W 071°03'0 0.0
2016-Jun-21 19:34N 42°22' W 071°03'0 0.0
2016-Jun-21 18:34N 42°22' W 071°03'0 0.0
2016-Jun-21 17:34N 42°22' W 071°03'0 0.0
2016-Jun-21 16:34N 42°22' W 071°03'0 0.0
2016-Jun-21 15:34N 42°22' W 071°03'0 0.0
2016-Jun-21 14:34N 42°22' W 071°03'0 0.0
2016-Jun-21 13:34N 42°22' W 071°03'0 0.0
2016-Jun-21 12:33N 42°22' W 071°03'0 0.0
2016-Jun-21 11:34N 42°22' W 071°03'0 0.0
2016-Jun-21 10:34N 42°22' W 071°03'0 0.0
2016-Jun-21 09:34N 42°22' W 071°03'0 0.0
2016-Jun-21 08:34N 42°22' W 071°03'0 0.0
2016-Jun-21 07:34N 42°22' W 071°03'0 0.0
2016-Jun-21 05:34N 42°22' W 071°03'0 0.0
2016-Jun-21 04:33N 42°22' W 071°03'0 0.0
2016-Jun-21 03:34N 42°22' W 071°03'0 0.0
2016-Jun-21 02:34N 42°22' W 071°03'0 0.0
2016-Jun-21 01:34N 42°22' W 071°03'0 0.0
2016-Jun-21 00:34N 42°22' W 071°03'0 0.0
2016-Jun-20 23:34N 42°22' W 071°03'0 0.0
2016-Jun-20 22:34N 42°22' W 071°03'0 0.0
2016-Jun-20 21:34N 42°22' W 071°03'0 0.0
2016-Jun-20 20:34N 42°22' W 071°03'0 0.0
2016-Jun-20 19:34N 42°22' W 071°03'0 0.0
2016-Jun-20 18:34N 42°22' W 071°03'0 0.0
2016-Jun-20 17:34N 42°22' W 071°03'0 0.0
2016-Jun-20 16:34N 42°22' W 071°03'0 0.0
2016-Jun-20 15:34N 42°22' W 071°03'0 0.0
2016-Jun-20 14:34N 42°22' W 071°03'0 0.0
2016-Jun-20 13:34N 42°22' W 071°03'0 0.0
2016-Jun-20 12:33N 42°22' W 071°03'0 0.0
2016-Jun-20 11:34N 42°22' W 071°03'0 0.0
2016-Jun-20 10:34N 42°22' W 071°03'0 0.0
2016-Jun-20 09:34N 42°22' W 071°03'0 0.0
2016-Jun-20 08:34N 42°22' W 071°03'0 0.0
2016-Jun-20 07:33N 42°22' W 071°03'0 0.0
2016-Jun-20 06:33N 42°22' W 071°03'0 0.0
2016-Jun-20 05:34N 42°22' W 071°03'0 0.0
2016-Jun-20 04:34N 42°22' W 071°03'0 0.0
2016-Jun-20 03:34N 42°22' W 071°03'0 0.3
2016-Jun-20 02:34N 42°21' W 071°03'0 0.3
2016-Jun-20 01:34N 42°22' W 071°03'0 0.0
2016-Jun-20 00:34N 42°22' W 071°03'0 0.0
2016-Jun-19 23:34N 42°22' W 071°03'0 0.0
2016-Jun-19 22:33N 42°22' W 071°03'0 0.0
2016-Jun-19 21:34N 42°22' W 071°03'0 0.0
2016-Jun-19 20:34N 42°22' W 071°03'0 0.0
2016-Jun-19 19:34N 42°22' W 071°03'0 0.0
2016-Jun-19 18:33N 42°22' W 071°03'0 0.0
2016-Jun-19 17:33N 42°22' W 071°03'0 0.0
2016-Jun-19 16:34N 42°22' W 071°03'0 0.0
2016-Jun-19 15:33N 42°22' W 071°03'0 0.1
2016-Jun-19 14:34N 42°22' W 071°03'0 0.1
2016-Jun-19 13:34N 42°22' W 071°03'0 0.0
2016-Jun-19 12:34N 42°22' W 071°03'0 0.0
2016-Jun-19 11:34N 42°22' W 071°03'0 0.0
2016-Jun-19 10:34N 42°22' W 071°03'0 0.0
2016-Jun-19 09:34N 42°22' W 071°03'0 0.0
2016-Jun-19 08:34N 42°22' W 071°03'0 0.0
2016-Jun-19 07:34N 42°22' W 071°03'0 0.0
2016-Jun-19 06:34N 42°22' W 071°03'0 0.0
2016-Jun-19 05:34N 42°22' W 071°03'0 0.0
2016-Jun-19 04:34N 42°22' W 071°03'0 0.0
2016-Jun-19 03:34N 42°22' W 071°03'0 0.0
2016-Jun-19 02:33N 42°22' W 071°03'0 0.0
2016-Jun-19 01:33N 42°22' W 071°03'0 0.0
2016-Jun-19 00:34N 42°22' W 071°03'0 0.0
2016-Jun-18 23:34N 42°22' W 071°03'0 0.0
2016-Jun-18 22:34N 42°22' W 071°03'0 0.0
2016-Jun-18 21:34N 42°22' W 071°03'0 0.0
2016-Jun-18 20:34N 42°22' W 071°03'0 0.0
2016-Jun-18 19:34N 42°22' W 071°03'0 0.0
2016-Jun-18 18:34N 42°22' W 071°03'0 0.0
2016-Jun-18 17:34N 42°22' W 071°03'0 0.0
2016-Jun-18 16:34N 42°22' W 071°03'0 0.0
2016-Jun-18 15:34N 42°22' W 071°03'0 0.0
2016-Jun-18 14:34N 42°22' W 071°03'0 0.0
2016-Jun-18 13:34N 42°22' W 071°03'0 0.0
2016-Jun-18 12:34N 42°22' W 071°03'0 0.0
2016-Jun-18 11:34N 42°22' W 071°03'0 0.0
2016-Jun-18 10:34N 42°22' W 071°03'0 0.0
2016-Jun-18 09:34N 42°22' W 071°03'0 0.0
2016-Jun-18 08:34N 42°22' W 071°03'0 0.0
2016-Jun-18 07:34N 42°22' W 071°03'0 0.0
2016-Jun-18 06:34N 42°22' W 071°03'0 0.0
2016-Jun-18 05:34N 42°22' W 071°03'0 0.0
2016-Jun-18 04:34N 42°22' W 071°03'0 0.0
2016-Jun-18 03:34N 42°22' W 071°03'0 0.0
2016-Jun-18 02:33N 42°22' W 071°03'0 0.0
2016-Jun-18 01:34N 42°22' W 071°03'0 0.0
2016-Jun-18 00:34N 42°22' W 071°03'0 0.0
2016-Jun-17 23:33N 42°22' W 071°03'0 0.0
2016-Jun-17 22:34N 42°22' W 071°03'0 0.0
2016-Jun-17 21:33N 42°22' W 071°03'0 0.0
2016-Jun-17 20:34N 42°22' W 071°03'0 0.0
2016-Jun-17 19:34N 42°22' W 071°03'0 0.0
2016-Jun-17 18:33N 42°22' W 071°03'0 0.0
2016-Jun-17 17:34N 42°22' W 071°03'0 0.0
2016-Jun-17 16:34N 42°22' W 071°03'0 0.0
2016-Jun-17 15:34N 42°22' W 071°03'0 0.0
2016-Jun-17 14:34N 42°22' W 071°03'0 0.0
2016-Jun-17 13:34N 42°22' W 071°03'0 0.0
2016-Jun-17 12:34N 42°22' W 071°03'0 0.0
2016-Jun-17 11:34N 42°22' W 071°03'0 0.0
2016-Jun-17 10:34N 42°22' W 071°03'0 0.0
2016-Jun-17 09:33N 42°22' W 071°03'0 0.0
2016-Jun-17 08:34N 42°22' W 071°03'0 0.0
2016-Jun-17 07:33N 42°22' W 071°03'0 0.0
2016-Jun-17 06:34N 42°22' W 071°03'0 0.0
2016-Jun-17 05:34N 42°22' W 071°03'0 0.0
2016-Jun-17 04:34N 42°22' W 071°03'0 0.0
2016-Jun-17 03:34N 42°22' W 071°03'0 0.0
2016-Jun-17 02:34N 42°22' W 071°03'0 0.0
2016-Jun-17 01:34N 42°22' W 071°03'4 4.4
2016-Jun-17 00:34N 42°20' W 070°57'4 4.4
2016-Jun-16 23:33N 42°22' W 071°03'0 0.0
2016-Jun-16 22:33N 42°22' W 071°03'0 0.0
2016-Jun-16 21:33N 42°22' W 071°03'0 0.0
2016-Jun-16 20:33N 42°22' W 071°03'0 0.0
2016-Jun-16 19:33N 42°22' W 071°03'0 0.2
2016-Jun-16 18:33N 42°22' W 071°03'0 0.2
2016-Jun-16 17:33N 42°22' W 071°03'0 0.0
2016-Jun-16 16:34N 42°22' W 071°03'0 0.0
2016-Jun-16 15:33N 42°22' W 071°03'0 0.0
2016-Jun-16 14:34N 42°22' W 071°03'0 0.0
2016-Jun-16 13:34N 42°22' W 071°03'  
Track history (hours):
 
Tides and Currents Weather Stations Pressure Air Temp Water Temp Dewpoint Dewpoint Depression Visibility Wind Speed Wind Dir Waves Ship Positions

Bella Una

Owner: Bella Una, LLC, Fort Lauderdale, FL. More information available from US FCC via Universal Licensing System and Coast Guard Vessel Documentation Center.

Last reported at 2016-Jun-26 13:04 UTC. Time now 2016-Jun-26 19:15 UTC.
Position N 41°26' W 070°15'.

Length 39 m; draft 2.2 m.

Type: Pleasure craft. MMSI: 366609000.

Date/timePositionNaut miles runAvg speedWind from/ knotsBaromVisibWave heightAir tempDewpointWater temp
2016-Jun-26 13:04N 41°26' W 070°15'911.8
2016-Jun-26 12:20N 41°20' W 070°07'3 3.9
2016-Jun-26 11:34N 41°17' W 070°06'0 0.0
2016-Jun-25 10:11N 41°17' W 070°06'0 0.0
2016-Jun-25 06:06N 41°17' W 070°06'0 0.0
2016-Jun-25 05:32N 41°17' W 070°06'  
2016-Jun-22 13:07N 42°11' W 070°38'711.6
2016-Jun-22 12:33N 42°16' W 070°44'1110.8
2016-Jun-22 11:34N 42°20' W 070°58'4 4.3
2016-Jun-22 10:34N 42°22' W 071°03'0 0.0
2016-Jun-22 09:34N 42°22' W 071°03'0 0.0
2016-Jun-22 08:34N 42°22' W 071°03'0 0.0
2016-Jun-22 07:34N 42°22' W 071°03'0 0.0
2016-Jun-22 06:34N 42°22' W 071°03'0 0.0
2016-Jun-22 05:33N 42°22' W 071°03'0 0.0
2016-Jun-22 04:34N 42°22' W 071°03'0 0.0
2016-Jun-22 03:34N 42°22' W 071°03'0 0.0
2016-Jun-22 02:34N 42°22' W 071°03'0 0.0
2016-Jun-22 01:34N 42°22' W 071°03'0 0.0
2016-Jun-22 00:34N 42°22' W 071°03'0 0.0
2016-Jun-21 23:34N 42°22' W 071°03'0 0.0
2016-Jun-21 22:34N 42°22' W 071°03'0 0.0
2016-Jun-21 21:33N 42°22' W 071°03'0 0.0
2016-Jun-21 20:34N 42°22' W 071°03'0 0.0
2016-Jun-21 19:34N 42°22' W 071°03'0 0.0
2016-Jun-21 18:34N 42°22' W 071°03'0 0.0
2016-Jun-21 17:34N 42°22' W 071°03'0 0.0
2016-Jun-21 16:34N 42°22' W 071°03'0 0.0
2016-Jun-21 15:34N 42°22' W 071°03'0 0.0
2016-Jun-21 14:34N 42°22' W 071°03'0 0.0
2016-Jun-21 13:34N 42°22' W 071°03'0 0.0
2016-Jun-21 12:33N 42°22' W 071°03'0 0.0
2016-Jun-21 11:34N 42°22' W 071°03'0 0.0
2016-Jun-21 10:34N 42°22' W 071°03'0 0.0
2016-Jun-21 09:34N 42°22' W 071°03'0 0.0
2016-Jun-21 08:34N 42°22' W 071°03'0 0.0
2016-Jun-21 07:34N 42°22' W 071°03'0 0.0
2016-Jun-21 05:34N 42°22' W 071°03'0 0.0
2016-Jun-21 04:33N 42°22' W 071°03'0 0.0
2016-Jun-21 03:34N 42°22' W 071°03'0 0.0
2016-Jun-21 02:34N 42°22' W 071°03'0 0.0
2016-Jun-21 01:34N 42°22' W 071°03'0 0.0
2016-Jun-21 00:34N 42°22' W 071°03'0 0.0
2016-Jun-20 23:34N 42°22' W 071°03'0 0.0
2016-Jun-20 22:34N 42°22' W 071°03'0 0.0
2016-Jun-20 21:34N 42°22' W 071°03'0 0.0
2016-Jun-20 20:34N 42°22' W 071°03'0 0.0
2016-Jun-20 19:34N 42°22' W 071°03'0 0.0
2016-Jun-20 18:34N 42°22' W 071°03'0 0.0
2016-Jun-20 17:34N 42°22' W 071°03'0 0.0
2016-Jun-20 16:34N 42°22' W 071°03'0 0.0
2016-Jun-20 15:34N 42°22' W 071°03'0 0.0
2016-Jun-20 14:34N 42°22' W 071°03'0 0.0
2016-Jun-20 13:34N 42°22' W 071°03'0 0.0
2016-Jun-20 12:33N 42°22' W 071°03'0 0.0
2016-Jun-20 11:34N 42°22' W 071°03'0 0.0
2016-Jun-20 10:34N 42°22' W 071°03'0 0.0
2016-Jun-20 09:34N 42°22' W 071°03'0 0.0
2016-Jun-20 08:34N 42°22' W 071°03'0 0.0
2016-Jun-20 07:33N 42°22' W 071°03'0 0.0
2016-Jun-20 06:33N 42°22' W 071°03'0 0.0
2016-Jun-20 05:34N 42°22' W 071°03'0 0.0
2016-Jun-20 04:34N 42°22' W 071°03'0 0.0
2016-Jun-20 03:34N 42°22' W 071°03'0 0.3
2016-Jun-20 02:34N 42°21' W 071°03'0 0.3
2016-Jun-20 01:34N 42°22' W 071°03'0 0.0
2016-Jun-20 00:34N 42°22' W 071°03'0 0.0
2016-Jun-19 23:34N 42°22' W 071°03'0 0.0
2016-Jun-19 22:33N 42°22' W 071°03'0 0.0
2016-Jun-19 21:34N 42°22' W 071°03'0 0.0
2016-Jun-19 20:34N 42°22' W 071°03'0 0.0
2016-Jun-19 19:34N 42°22' W 071°03'0 0.0
2016-Jun-19 18:33N 42°22' W 071°03'0 0.0
2016-Jun-19 17:33N 42°22' W 071°03'0 0.0
2016-Jun-19 16:34N 42°22' W 071°03'0 0.0
2016-Jun-19 15:33N 42°22' W 071°03'0 0.1
2016-Jun-19 14:34N 42°22' W 071°03'0 0.1
2016-Jun-19 13:34N 42°22' W 071°03'0 0.0
2016-Jun-19 12:34N 42°22' W 071°03'0 0.0
2016-Jun-19 11:34N 42°22' W 071°03'0 0.0
2016-Jun-19 10:34N 42°22' W 071°03'0 0.0
2016-Jun-19 09:34N 42°22' W 071°03'0 0.0
2016-Jun-19 08:34N 42°22' W 071°03'0 0.0
2016-Jun-19 07:34N 42°22' W 071°03'0 0.0
2016-Jun-19 06:34N 42°22' W 071°03'0 0.0
2016-Jun-19 05:34N 42°22' W 071°03'0 0.0
2016-Jun-19 04:34N 42°22' W 071°03'0 0.0
2016-Jun-19 03:34N 42°22' W 071°03'0 0.0
2016-Jun-19 02:33N 42°22' W 071°03'0 0.0
2016-Jun-19 01:33N 42°22' W 071°03'0 0.0
2016-Jun-19 00:34N 42°22' W 071°03'0 0.0
2016-Jun-18 23:34N 42°22' W 071°03'0 0.0
2016-Jun-18 22:34N 42°22' W 071°03'0 0.0
2016-Jun-18 21:34N 42°22' W 071°03'0 0.0
2016-Jun-18 20:34N 42°22' W 071°03'0 0.0
2016-Jun-18 19:34N 42°22' W 071°03'0 0.0
2016-Jun-18 18:34N 42°22' W 071°03'0 0.0
2016-Jun-18 17:34N 42°22' W 071°03'0 0.0
2016-Jun-18 16:34N 42°22' W 071°03'0 0.0
2016-Jun-18 15:34N 42°22' W 071°03'0 0.0
2016-Jun-18 14:34N 42°22' W 071°03'0 0.0
2016-Jun-18 13:34N 42°22' W 071°03'0 0.0
2016-Jun-18 12:34N 42°22' W 071°03'0 0.0
2016-Jun-18 11:34N 42°22' W 071°03'0 0.0
2016-Jun-18 10:34N 42°22' W 071°03'0 0.0
2016-Jun-18 09:34N 42°22' W 071°03'0 0.0
2016-Jun-18 08:34N 42°22' W 071°03'0 0.0
2016-Jun-18 07:34N 42°22' W 071°03'0 0.0
2016-Jun-18 06:34N 42°22' W 071°03'0 0.0
2016-Jun-18 05:34N 42°22' W 071°03'0 0.0
2016-Jun-18 04:34N 42°22' W 071°03'0 0.0
2016-Jun-18 03:34N 42°22' W 071°03'0 0.0
2016-Jun-18 02:33N 42°22' W 071°03'0 0.0
2016-Jun-18 01:34N 42°22' W 071°03'0 0.0
2016-Jun-18 00:34N 42°22' W 071°03'0 0.0
2016-Jun-17 23:33N 42°22' W 071°03'0 0.0
2016-Jun-17 22:34N 42°22' W 071°03'0 0.0
2016-Jun-17 21:33N 42°22' W 071°03'0 0.0
2016-Jun-17 20:34N 42°22' W 071°03'0 0.0
2016-Jun-17 19:34N 42°22' W 071°03'0 0.0
2016-Jun-17 18:33N 42°22' W 071°03'0 0.0
2016-Jun-17 17:34N 42°22' W 071°03'0 0.0
2016-Jun-17 16:34N 42°22' W 071°03'0 0.0
2016-Jun-17 15:34N 42°22' W 071°03'0 0.0
2016-Jun-17 14:34N 42°22' W 071°03'0 0.0
2016-Jun-17 13:34N 42°22' W 071°03'0 0.0
2016-Jun-17 12:34N 42°22' W 071°03'0 0.0
2016-Jun-17 11:34N 42°22' W 071°03'0 0.0
2016-Jun-17 10:34N 42°22' W 071°03'0 0.0
2016-Jun-17 09:33N 42°22' W 071°03'0 0.0
2016-Jun-17 08:34N 42°22' W 071°03'0 0.0
2016-Jun-17 07:33N 42°22' W 071°03'0 0.0
2016-Jun-17 06:34N 42°22' W 071°03'0 0.0
2016-Jun-17 05:34N 42°22' W 071°03'0 0.0
2016-Jun-17 04:34N 42°22' W 071°03'0 0.0
2016-Jun-17 03:34N 42°22' W 071°03'0 0.0
2016-Jun-17 02:34N 42°22' W 071°03'0 0.0
2016-Jun-17 01:34N 42°22' W 071°03'4 4.4
2016-Jun-17 00:34N 42°20' W 070°57'4 4.4
2016-Jun-16 23:33N 42°22' W 071°03'0 0.0
2016-Jun-16 22:33N 42°22' W 071°03'0 0.0
2016-Jun-16 21:33N 42°22' W 071°03'0 0.0
2016-Jun-16 20:33N 42°22' W 071°03'0 0.0
2016-Jun-16 19:33N 42°22' W 071°03'0 0.2
2016-Jun-16 18:33N 42°22' W 071°03'0 0.2
2016-Jun-16 17:33N 42°22' W 071°03'0 0.0
2016-Jun-16 16:34N 42°22' W 071°03'0 0.0
2016-Jun-16 15:33N 42°22' W 071°03'0 0.0
2016-Jun-16 14:34N 42°22' W 071°03'0 0.0
2016-Jun-16 13:34N 42°22' W 071°03'  

Dump ship's entire track history